createdAt,value
2022-09-16T00:00:51.631Z,75.00
2022-09-16T00:03:19.067Z,75.10
2022-09-16T00:05:49.003Z,75.00
2022-09-16T00:08:17.204Z,75.20
2022-09-16T00:10:44.576Z,75.40
2022-09-16T00:13:13.217Z,75.50
2022-09-16T00:15:49.111Z,75.50
2022-09-16T00:18:16.017Z,75.50
2022-09-16T00:20:47.871Z,75.40
2022-09-16T00:23:15.231Z,75.50
2022-09-16T00:25:42.278Z,75.50
2022-09-16T00:28:09.216Z,75.50
2022-09-16T00:30:36.311Z,75.50
2022-09-16T00:33:03.420Z,75.60
2022-09-16T00:35:30.393Z,75.50
2022-09-16T00:37:57.329Z,76.20
2022-09-16T00:40:24.373Z,75.30
2022-09-16T00:42:51.384Z,75.30
2022-09-16T00:45:24.166Z,75.30
2022-09-16T00:47:57.942Z,75.30
2022-09-16T00:50:48.767Z,75.30
2022-09-16T00:53:27.995Z,75.10
2022-09-16T00:55:57.824Z,75.30
2022-09-16T00:58:51.479Z,75.40
2022-09-16T01:01:18.924Z,75.50
2022-09-16T01:03:51.680Z,75.50
2022-09-16T01:06:19.593Z,75.60
2022-09-16T01:08:49.367Z,75.60
2022-09-16T01:11:16.581Z,75.70
2022-09-16T01:13:45.871Z,75.80
2022-09-16T01:16:18.195Z,75.70
2022-09-16T01:19:15.954Z,75.80
2022-09-16T01:22:03.588Z,75.70
2022-09-16T01:24:51.784Z,75.80
2022-09-16T01:27:26.198Z,76.00
2022-09-16T01:30:11.076Z,76.00
2022-09-16T01:32:40.980Z,75.90
2022-09-16T01:35:26.821Z,76.00
2022-09-16T01:38:14.753Z,76.20
2022-09-16T01:41:23.805Z,76.40
2022-09-16T01:44:03.718Z,76.70
2022-09-16T01:46:57.122Z,77.30
2022-09-16T01:49:42.908Z,77.90
2022-09-16T01:52:16.040Z,77.90
2022-09-16T01:55:20.455Z,77.80
2022-09-16T01:57:59.157Z,77.70
2022-09-16T02:00:26.455Z,77.60
2022-09-16T02:03:07.645Z,77.80
2022-09-16T02:05:43.016Z,78.10
2022-09-16T02:08:17.707Z,78.20
2022-09-16T02:10:50.983Z,78.10
2022-09-16T02:13:26.519Z,78.10
2022-09-16T02:15:58.785Z,78.30
2022-09-16T02:18:30.554Z,78.30
2022-09-16T02:21:00.707Z,78.50
2022-09-16T02:23:33.310Z,79.10
2022-09-16T02:26:01.907Z,78.30
2022-09-16T02:28:36.896Z,78.10
2022-09-16T02:31:07.941Z,78.10
2022-09-16T02:33:47.536Z,78.30
2022-09-16T02:36:20.702Z,78.50
2022-09-16T02:38:53.271Z,78.80
2022-09-16T02:41:20.439Z,79.20
2022-09-16T02:43:47.362Z,79.30
2022-09-16T02:46:31.156Z,80.20
2022-09-16T02:49:21.833Z,79.50
2022-09-16T02:52:13.529Z,79.70
2022-09-16T02:55:00.715Z,79.80
2022-09-16T02:57:28.249Z,79.80
2022-09-16T02:59:55.295Z,79.80
2022-09-16T03:02:22.608Z,79.70
2022-09-16T03:04:49.627Z,79.90
2022-09-16T03:07:17.210Z,80.00
2022-09-16T03:09:46.940Z,80.20
2022-09-16T03:12:37.075Z,80.40
2022-09-16T03:15:42.420Z,80.50
2022-09-16T03:18:32.318Z,81.20
2022-09-16T03:21:17.686Z,80.60
2022-09-16T03:24:00.441Z,80.80
2022-09-16T03:26:47.608Z,80.80
2022-09-16T03:29:32.508Z,80.70
2022-09-16T03:32:17.731Z,80.70
2022-09-16T03:35:04.357Z,80.60
2022-09-16T03:37:36.980Z,80.70
2022-09-16T03:40:15.838Z,80.80
2022-09-16T03:42:44.170Z,81.00
2022-09-16T03:45:22.044Z,81.20
2022-09-16T03:47:50.944Z,81.40
2022-09-16T03:50:19.074Z,81.40
2022-09-16T03:52:46.215Z,81.20
2022-09-16T03:55:13.596Z,81.00
2022-09-16T03:57:40.541Z,80.90
2022-09-16T04:00:08.758Z,80.90
2022-09-16T04:02:38.972Z,81.20
2022-09-16T04:05:06.447Z,81.40
2022-09-16T04:07:33.720Z,81.60
2022-09-16T04:10:01.715Z,82.10
2022-09-16T04:12:29.315Z,82.30
2022-09-16T04:14:56.433Z,82.80
2022-09-16T04:17:23.759Z,83.00
2022-09-16T04:19:51.506Z,83.10
2022-09-16T04:22:18.605Z,83.10
2022-09-16T04:24:45.534Z,83.00
2022-09-16T04:27:12.437Z,83.20
2022-09-16T04:29:39.353Z,83.20
2022-09-16T04:32:06.307Z,83.20
2022-09-16T04:34:33.708Z,83.10
2022-09-16T04:37:00.659Z,83.20
2022-09-16T04:39:27.640Z,83.10
2022-09-16T04:41:54.560Z,83.80
2022-09-16T04:44:21.609Z,83.00
2022-09-16T04:46:48.580Z,83.00
2022-09-16T04:49:15.559Z,83.00
2022-09-16T04:51:42.508Z,82.90
2022-09-16T04:54:09.736Z,82.90
2022-09-16T04:56:36.681Z,83.00
2022-09-16T04:59:04.954Z,83.10
2022-09-16T05:01:34.166Z,83.30
2022-09-16T05:04:04.243Z,83.30
2022-09-16T05:06:34.214Z,83.40
2022-09-16T05:09:01.627Z,83.50
2022-09-16T05:11:31.448Z,83.30
2022-09-16T05:14:03.193Z,83.30
2022-09-16T05:16:30.788Z,83.30
2022-09-16T05:18:59.931Z,83.10
2022-09-16T05:21:28.685Z,83.00
2022-09-16T05:23:59.680Z,82.80
2022-09-16T05:26:29.507Z,82.50
2022-09-16T05:28:56.418Z,82.20
2022-09-16T05:31:27.250Z,81.80
2022-09-16T05:34:23.126Z,81.60
2022-09-16T05:36:53.966Z,81.20
2022-09-16T05:39:23.725Z,80.60
2022-09-16T05:41:56.251Z,80.10
2022-09-16T05:44:23.948Z,79.20
2022-09-16T05:46:50.911Z,77.90
2022-09-16T05:49:21.252Z,76.60
2022-09-16T05:51:49.207Z,74.90
2022-09-16T05:54:18.619Z,73.00
2022-09-16T05:56:46.587Z,70.90
2022-09-16T05:59:14.458Z,68.60
2022-09-16T06:01:41.794Z,66.60
2022-09-16T06:04:12.004Z,65.10
2022-09-16T06:06:41.503Z,63.30
2022-09-16T06:09:14.972Z,63.10
2022-09-16T06:11:44.469Z,64.60
2022-09-16T06:14:13.175Z,65.50
2022-09-16T06:16:40.847Z,64.60
2022-09-16T06:19:11.055Z,63.20
2022-09-16T06:21:38.992Z,62.30
2022-09-16T06:24:10.047Z,61.80
2022-09-16T06:26:41.656Z,61.30
2022-09-16T06:29:09.573Z,60.30
2022-09-16T06:31:37.930Z,60.30
2022-09-16T06:34:06.004Z,59.20
2022-09-16T06:36:42.731Z,58.20
2022-09-16T06:39:13.816Z,57.00
2022-09-16T06:41:41.695Z,55.80
2022-09-16T06:44:08.947Z,54.50
2022-09-16T06:46:36.523Z,52.20
2022-09-16T06:49:06.221Z,51.80
2022-09-16T06:51:34.736Z,51.00
2022-09-16T06:54:07.128Z,49.90
2022-09-16T06:56:36.124Z,48.70
2022-09-16T06:59:03.719Z,48.30
2022-09-16T07:01:31.755Z,48.50
2022-09-16T07:04:01.775Z,49.80
2022-09-16T07:09:17.167Z,53.30
2022-09-16T07:11:44.114Z,55.00
2022-09-16T07:14:11.087Z,55.80
2022-09-16T07:16:38.080Z,55.00
2022-09-16T07:19:05.384Z,53.90
2022-09-16T07:21:32.581Z,52.90
2022-09-16T07:24:01.652Z,52.00
2022-09-16T07:26:34.227Z,52.00
2022-09-16T07:29:03.724Z,50.90
2022-09-16T07:32:04.872Z,50.30
2022-09-16T07:34:59.291Z,52.00
2022-09-16T08:40:27.323Z,58.20
2022-09-16T08:43:00.411Z,57.50
2022-09-16T08:45:35.741Z,57.00
2022-09-16T08:48:43.071Z,56.20
2022-09-16T08:51:15.959Z,55.50
2022-09-16T08:53:49.872Z,55.40
2022-09-16T08:56:21.888Z,55.20
2022-09-16T08:58:54.044Z,55.10
2022-09-16T09:01:20.962Z,55.10
2022-09-16T09:03:49.021Z,55.70
2022-09-16T09:06:27.834Z,56.40
2022-09-16T09:08:57.760Z,56.90
2022-09-16T09:11:35.483Z,57.00
2022-09-16T09:14:09.612Z,57.50
2022-09-16T09:16:51.693Z,57.10
2022-09-16T09:19:50.073Z,56.70
2022-09-16T09:22:38.924Z,58.00
2022-09-16T09:25:22.763Z,58.70
2022-09-16T09:28:11.304Z,59.60
2022-09-16T09:30:44.532Z,59.70
2022-09-16T09:33:57.944Z,59.30
2022-09-16T09:37:03.440Z,59.70
2022-09-16T09:39:53.129Z,59.40
2022-09-16T09:42:26.001Z,59.80
2022-09-16T09:45:13.744Z,60.00
2022-09-16T09:47:47.439Z,58.20
2022-09-16T09:50:24.363Z,58.80
2022-09-16T09:53:11.519Z,58.60
2022-09-16T09:55:41.334Z,57.80
2022-09-16T09:58:32.594Z,58.10
2022-09-16T10:00:59.654Z,57.50
2022-09-16T10:03:28.526Z,57.80
2022-09-16T10:05:56.044Z,57.20
2022-09-16T10:08:44.718Z,56.70
2022-09-16T10:11:24.483Z,56.20
2022-09-16T10:13:58.011Z,55.50
2022-09-16T10:16:38.265Z,55.20
2022-09-16T10:19:06.932Z,55.60
2022-09-16T10:21:49.740Z,55.10
2022-09-16T10:24:36.096Z,55.80
2022-09-16T10:27:23.281Z,55.40
2022-09-16T10:30:15.307Z,55.60
2022-09-16T10:32:48.198Z,54.80
2022-09-16T10:35:23.270Z,55.10
2022-09-16T10:37:53.669Z,55.00
2022-09-16T10:40:23.391Z,53.80
2022-09-16T10:42:57.095Z,54.00
2022-09-16T10:45:52.088Z,54.50
2022-09-16T10:48:50.284Z,56.10
2022-09-16T10:51:44.586Z,56.90
2022-09-16T10:54:40.814Z,56.50
2022-09-16T10:57:50.471Z,56.60
2022-09-16T11:00:58.828Z,56.90
2022-09-16T11:04:33.386Z,57.00
2022-09-16T11:07:43.150Z,57.20
2022-09-16T11:10:52.764Z,57.70
2022-09-16T11:13:52.658Z,57.10
2022-09-16T11:17:30.061Z,56.40
2022-09-16T11:20:41.701Z,55.90
2022-09-16T11:24:06.406Z,55.10
2022-09-16T11:26:38.193Z,54.70
2022-09-16T11:29:27.230Z,54.80
2022-09-16T11:32:35.361Z,54.80
2022-09-16T11:35:23.227Z,55.30
2022-09-16T11:37:57.484Z,55.40
2022-09-16T11:40:33.268Z,55.20
2022-09-16T11:43:21.309Z,55.30
2022-09-16T11:45:56.496Z,54.60
2022-09-16T11:48:40.656Z,55.30
2022-09-16T11:51:24.323Z,55.90
2022-09-16T11:54:06.045Z,56.40
2022-09-16T11:56:43.377Z,57.20
2022-09-16T11:59:26.140Z,56.60
2022-09-16T12:02:18.075Z,56.70
2022-09-16T12:04:57.848Z,56.80
2022-09-16T12:07:39.710Z,55.30
2022-09-16T12:10:27.809Z,54.00
2022-09-16T12:13:05.059Z,54.60
2022-09-16T12:15:48.528Z,55.10
2022-09-16T12:18:35.008Z,55.90
2022-09-16T12:21:21.192Z,55.90
2022-09-16T12:24:32.068Z,55.70
2022-09-16T12:27:36.615Z,55.40
2022-09-16T12:30:13.177Z,56.00
2022-09-16T12:32:49.395Z,56.30
2022-09-16T12:35:22.990Z,55.00
2022-09-16T12:37:51.848Z,55.20
2022-09-16T12:40:29.080Z,55.50
2022-09-16T12:43:17.131Z,55.80
2022-09-16T12:46:17.438Z,55.40
2022-09-16T12:49:02.778Z,55.20
2022-09-16T12:51:55.329Z,55.00
2022-09-16T12:54:22.221Z,54.90
2022-09-16T12:56:56.100Z,54.80
2022-09-16T12:59:49.980Z,54.70
2022-09-16T13:02:29.720Z,54.20
2022-09-16T13:05:01.971Z,53.80
2022-09-16T13:07:34.223Z,53.80
2022-09-16T13:10:08.844Z,54.40
2022-09-16T13:12:43.103Z,53.70
2022-09-16T13:15:34.037Z,54.10
2022-09-16T13:18:23.750Z,55.20
2022-09-16T13:21:00.110Z,56.10
2022-09-16T13:23:34.531Z,56.90
2022-09-16T13:26:03.168Z,57.60
2022-09-16T13:28:32.875Z,57.70
2022-09-16T13:31:33.967Z,58.00
2022-09-16T13:34:01.270Z,58.40
2022-09-16T13:36:29.734Z,58.10
2022-09-16T13:38:59.548Z,58.10
2022-09-16T13:41:43.693Z,58.00
2022-09-16T13:44:41.610Z,57.30
2022-09-16T13:47:11.770Z,56.80
2022-09-16T13:49:50.419Z,56.10
2022-09-16T13:52:31.199Z,55.40
2022-09-16T13:55:12.343Z,55.20
2022-09-16T13:57:53.148Z,54.80
2022-09-16T14:00:36.077Z,54.30
2022-09-16T14:03:56.781Z,53.90
2022-09-16T14:06:51.534Z,53.70
2022-09-16T14:10:03.453Z,54.10
2022-09-16T14:12:42.045Z,54.50
2022-09-16T14:15:09.865Z,55.60
2022-09-16T14:17:51.181Z,55.80
2022-09-16T14:20:22.381Z,55.60
2022-09-16T14:22:59.911Z,55.10
2022-09-16T14:25:29.608Z,55.40
2022-09-16T14:28:20.789Z,55.70
2022-09-16T14:30:59.261Z,55.70
2022-09-16T14:33:29.456Z,55.80
2022-09-16T14:35:57.703Z,55.90
2022-09-16T14:39:07.093Z,55.80
2022-09-16T14:41:36.320Z,55.00
2022-09-16T14:44:20.776Z,53.70
2022-09-16T14:46:56.785Z,52.70
2022-09-16T14:49:32.207Z,51.60
2022-09-16T14:52:04.340Z,51.70
2022-09-16T14:54:31.749Z,52.60
2022-09-16T14:57:00.042Z,53.20
2022-09-16T14:59:38.521Z,52.50
2022-09-16T15:02:23.589Z,52.00
2022-09-16T15:05:38.661Z,51.80
2022-09-16T15:08:23.983Z,51.20
2022-09-16T15:10:56.921Z,50.60
2022-09-16T15:13:30.480Z,49.90
2022-09-16T15:16:08.507Z,49.50
2022-09-16T15:18:54.705Z,49.40
2022-09-16T15:21:23.709Z,49.40
2022-09-16T15:23:52.993Z,48.80
2022-09-16T15:26:23.265Z,49.70
2022-09-16T15:28:52.532Z,50.20
2022-09-16T15:31:32.319Z,50.90
2022-09-16T15:34:01.323Z,51.60
2022-09-16T15:36:42.616Z,52.10
2022-09-16T15:39:28.397Z,52.20
2022-09-16T15:42:16.743Z,52.30
2022-09-16T15:45:12.385Z,53.00
2022-09-16T15:47:56.180Z,52.30
2022-09-16T15:50:24.698Z,52.70
2022-09-16T15:53:06.745Z,52.60
2022-09-16T15:55:49.086Z,52.70
2022-09-16T15:58:20.452Z,53.60
2022-09-16T16:01:11.788Z,53.20
2022-09-16T16:03:44.708Z,54.10
2022-09-16T16:06:12.259Z,54.60
2022-09-16T16:08:40.283Z,55.40
2022-09-16T16:11:18.866Z,56.40
2022-09-16T16:13:47.123Z,57.20
2022-09-16T16:16:15.823Z,57.50
2022-09-16T16:18:44.779Z,57.70
2022-09-16T16:21:15.656Z,57.90
2022-09-16T16:23:43.220Z,58.60
2022-09-16T16:26:11.900Z,58.80
2022-09-16T16:28:39.167Z,58.90
2022-09-16T16:31:17.826Z,59.30
2022-09-16T16:33:47.512Z,60.00
2022-09-16T16:36:16.909Z,60.40
2022-09-16T16:38:45.623Z,60.80
2022-09-16T16:41:13.630Z,61.00
2022-09-16T16:43:40.999Z,61.30
2022-09-16T16:46:08.925Z,61.60
2022-09-16T16:48:35.959Z,61.90
2022-09-16T16:51:06.661Z,62.20
2022-09-16T16:53:34.156Z,63.00
2022-09-16T16:56:15.072Z,63.60
2022-09-16T16:58:45.572Z,64.10
2022-09-16T17:01:18.682Z,64.50
2022-09-16T17:03:49.843Z,65.20
2022-09-16T17:06:18.125Z,65.50
2022-09-16T17:08:45.147Z,65.90
2022-09-16T17:11:14.879Z,66.10
2022-09-16T17:13:46.833Z,66.60
2022-09-16T17:16:18.038Z,67.00
2022-09-16T17:18:45.376Z,67.10
2022-09-16T17:21:16.691Z,67.30
2022-09-16T17:23:44.265Z,67.60
2022-09-16T17:26:12.465Z,67.80
2022-09-16T17:28:41.185Z,68.10
2022-09-16T17:31:10.341Z,68.30
2022-09-16T17:33:37.606Z,68.50
2022-09-16T17:36:06.668Z,68.80
2022-09-16T17:38:34.060Z,69.20
2022-09-16T17:41:12.416Z,69.30
2022-09-16T17:43:40.326Z,69.50
2022-09-16T17:46:14.012Z,69.50
2022-09-16T17:48:41.911Z,69.50
2022-09-16T17:51:09.678Z,69.40
2022-09-16T17:53:37.810Z,70.20
2022-09-16T17:56:12.408Z,69.50
2022-09-16T17:58:41.600Z,69.80
2022-09-16T18:01:12.560Z,70.00
2022-09-16T18:03:41.321Z,70.40
2022-09-16T18:06:10.476Z,70.50
2022-09-16T18:08:38.624Z,70.70
2022-09-16T18:11:06.712Z,70.80
2022-09-16T18:13:33.703Z,71.70
2022-09-16T18:16:07.272Z,72.20
2022-09-16T18:18:36.684Z,72.80
2022-09-16T18:21:06.153Z,72.60
2022-09-16T18:23:33.714Z,73.30
2022-09-16T18:26:05.975Z,73.40
2022-09-16T18:28:58.287Z,73.30
2022-09-16T18:31:24.750Z,73.00
2022-09-16T18:33:55.925Z,74.10
2022-09-16T18:36:25.545Z,75.00
2022-09-16T18:38:54.671Z,75.30
2022-09-16T18:41:24.457Z,75.20
2022-09-16T18:44:00.014Z,75.30
2022-09-16T18:46:32.278Z,75.60
2022-09-16T18:49:00.133Z,75.90
2022-09-16T18:51:30.059Z,76.50
2022-09-16T18:54:02.236Z,77.60
2022-09-16T18:56:32.157Z,78.20
2022-09-16T18:59:21.036Z,78.80
2022-09-16T19:01:49.923Z,79.40
2022-09-16T19:04:20.010Z,79.50
2022-09-16T19:06:49.696Z,80.00
2022-09-16T19:09:20.248Z,80.50
2022-09-16T19:11:47.858Z,80.80
2022-09-16T19:14:15.566Z,81.20
2022-09-16T19:16:44.891Z,81.50
2022-09-16T19:19:14.488Z,82.00
2022-09-16T19:21:43.008Z,82.40
2022-09-16T19:24:19.006Z,82.70
2022-09-16T19:26:47.220Z,83.10
2022-09-16T19:29:15.639Z,83.30
2022-09-16T19:31:45.940Z,83.50
2022-09-16T19:34:14.808Z,83.80
2022-09-16T19:36:42.737Z,84.10
2022-09-16T19:39:12.156Z,84.30
2022-09-16T19:41:41.044Z,84.50
2022-09-16T19:44:12.178Z,84.50
2022-09-16T19:46:40.483Z,84.70
2022-09-16T19:49:08.419Z,84.80
2022-09-16T19:51:36.092Z,85.00
2022-09-16T19:54:03.633Z,85.30
2022-09-16T19:56:33.358Z,85.50
2022-09-16T19:59:01.765Z,86.00
2022-09-16T20:01:31.886Z,86.00
2022-09-16T20:03:59.746Z,86.30
2022-09-16T20:06:30.825Z,86.40
2022-09-16T20:09:00.087Z,86.80
2022-09-16T20:11:30.157Z,87.20
2022-09-16T20:14:00.390Z,87.50
2022-09-16T20:16:37.735Z,87.80
2022-09-16T20:19:07.982Z,88.00
2022-09-16T20:21:36.047Z,88.20
2022-09-16T20:24:05.953Z,88.50
2022-09-16T20:26:34.174Z,88.90
2022-09-16T20:29:01.830Z,89.00
2022-09-16T20:31:32.561Z,89.20
2022-09-16T20:34:00.344Z,89.30
2022-09-16T20:36:32.040Z,88.90
2022-09-16T20:39:00.250Z,88.60
2022-09-16T20:41:29.828Z,88.10
2022-09-16T20:43:57.574Z,87.80
2022-09-16T20:46:31.080Z,87.60
2022-09-16T20:48:59.513Z,87.30
2022-09-16T20:51:29.458Z,86.90
2022-09-16T20:53:58.826Z,86.00
2022-09-16T20:56:30.412Z,85.20
2022-09-16T20:59:02.425Z,84.50
2022-09-16T21:01:34.537Z,84.10
2022-09-16T21:04:05.301Z,83.80
2022-09-16T21:06:34.718Z,83.40
2022-09-16T21:09:05.498Z,83.10
2022-09-16T21:11:33.285Z,82.70
2022-09-16T21:14:02.328Z,82.60
2022-09-16T21:16:31.918Z,82.40
2022-09-16T21:19:00.855Z,82.30
2022-09-16T21:21:28.837Z,82.10
2022-09-16T21:23:57.875Z,81.80
2022-09-16T21:26:31.151Z,81.60
2022-09-16T21:29:04.015Z,81.60
2022-09-16T21:31:34.534Z,81.70
2022-09-16T21:34:03.154Z,81.70
2022-09-16T21:36:30.676Z,81.80
2022-09-16T21:38:58.463Z,82.00
2022-09-16T21:41:26.591Z,82.00
2022-09-16T21:43:55.837Z,82.00
2022-09-16T21:46:25.868Z,82.10
2022-09-16T21:48:58.392Z,82.20
2022-09-16T21:51:25.609Z,82.20
2022-09-16T21:53:52.852Z,81.80
2022-09-16T21:56:21.676Z,81.80
2022-09-16T21:58:50.230Z,81.50
2022-09-16T22:01:21.229Z,81.50
2022-09-16T22:04:03.301Z,81.30
2022-09-16T22:06:30.803Z,80.70
2022-09-16T22:09:00.986Z,80.80
2022-09-16T22:11:30.732Z,81.40
2022-09-16T22:14:00.746Z,80.40
2022-09-16T22:16:30.776Z,80.40
2022-09-16T22:19:02.999Z,80.50
2022-09-16T22:21:32.463Z,80.30
2022-09-16T22:24:00.769Z,80.00
2022-09-16T22:26:29.108Z,79.90
2022-09-16T22:28:56.576Z,79.90
2022-09-16T22:31:25.022Z,80.00
2022-09-16T22:33:53.871Z,79.90
2022-09-16T22:36:26.663Z,79.80
2022-09-16T22:39:00.913Z,79.40
2022-09-16T22:41:28.832Z,79.40
2022-09-16T22:43:56.035Z,80.00
2022-09-16T22:46:26.309Z,80.30
2022-09-16T22:48:55.321Z,80.10
2022-09-16T22:51:22.608Z,80.10
2022-09-16T22:53:50.181Z,80.00
2022-09-16T22:56:20.200Z,79.60
2022-09-16T22:58:51.415Z,79.10
2022-09-16T23:01:20.253Z,79.10
2022-09-16T23:03:51.693Z,79.40
2022-09-16T23:06:18.697Z,79.50
2022-09-16T23:08:46.438Z,79.30
2022-09-16T23:11:22.092Z,78.60
2022-09-16T23:13:50.394Z,78.20
2022-09-16T23:16:20.988Z,77.40
2022-09-16T23:18:49.128Z,77.10
2022-09-16T23:21:19.198Z,76.80
2022-09-16T23:23:49.746Z,76.70
2022-09-16T23:26:22.282Z,76.70
2022-09-16T23:28:54.487Z,76.00
2022-09-16T23:31:25.303Z,75.20
2022-09-16T23:33:53.196Z,75.20
2022-09-16T23:36:20.908Z,74.60
2022-09-16T23:38:48.516Z,74.90
2022-09-16T23:41:19.927Z,74.00
2022-09-16T23:43:48.562Z,73.80
2022-09-16T23:46:17.603Z,74.20
2022-09-16T23:48:45.241Z,74.40
2022-09-16T23:51:14.124Z,74.40
2022-09-16T23:53:45.127Z,73.70
2022-09-16T23:56:14.062Z,72.80
2022-09-16T23:58:45.605Z,72.60
